Coolidge, Texas
Current Conditions -  °F | °C
As of 10:15 PM on Tuesday 27 Jan 2015 (Local Time) from KLXY Reporting Station
Clear Clear  
Wind Chill: 55°   Ceiling: Unl
Heat Index: 55°   Visibility: 10mi
Dew Point: 40°   Wind: 5mph
Humidity: 58%   Direction: 120°ESE
Pressure: 30.13"   Gusts: NA
Location:  31.75°N, 96.65°W
Report Text: KLXY 280415Z AUTO 12004KT 10SM CLR 13/05 A3013 RMK AO2 T01270045
Loading
Personal Weather Stations






























Interactive Weather Map New forecast layout! Learn more

10-Day Weather Forecast

Advertisements
Track Severe Weather on mobile